createdAt,value
2018-06-19T00:00:27.099Z,5.40
2018-06-19T00:01:27.350Z,5.30
2018-06-19T00:02:27.590Z,4.90
2018-06-19T00:03:27.838Z,4.90
2018-06-19T00:04:28.081Z,4.80
2018-06-19T00:05:28.316Z,5.00
2018-06-19T00:06:28.559Z,4.90
2018-06-19T00:07:28.793Z,5.00
2018-06-19T00:08:29.041Z,5.00
2018-06-19T00:09:29.284Z,5.50
2018-06-19T00:10:29.517Z,4.80
2018-06-19T00:11:29.770Z,5.30
2018-06-19T00:12:30.014Z,5.20
2018-06-19T00:13:30.255Z,4.40
2018-06-19T00:14:30.490Z,4.70
2018-06-19T00:15:30.723Z,4.90
2018-06-19T00:16:30.966Z,4.70
2018-06-19T00:17:31.211Z,4.70
2018-06-19T00:18:31.437Z,4.80
2018-06-19T00:19:31.685Z,4.40
2018-06-19T00:20:31.936Z,4.60
2018-06-19T00:21:32.185Z,4.20
2018-06-19T00:22:32.432Z,4.50
2018-06-19T00:23:32.676Z,4.90
2018-06-19T00:24:32.923Z,4.70
2018-06-19T00:25:33.176Z,4.90
2018-06-19T00:26:33.410Z,5.10
2018-06-19T00:27:33.645Z,5.70
2018-06-19T00:28:33.884Z,5.80
2018-06-19T00:29:34.118Z,5.10
2018-06-19T00:30:34.374Z,5.20
2018-06-19T00:31:34.610Z,5.20
2018-06-19T00:32:34.861Z,5.60
2018-06-19T00:33:35.104Z,5.10
2018-06-19T00:34:35.346Z,5.00
2018-06-19T00:35:35.591Z,5.00
2018-06-19T00:36:35.839Z,4.90
2018-06-19T00:37:36.061Z,4.90
2018-06-19T00:38:36.307Z,4.70
2018-06-19T00:39:36.557Z,4.80
2018-06-19T00:40:36.782Z,4.80
2018-06-19T00:41:37.075Z,4.50
2018-06-19T00:42:37.299Z,4.30
2018-06-19T00:43:37.539Z,4.70
2018-06-19T00:44:37.789Z,4.10
2018-06-19T00:45:38.008Z,4.60
2018-06-19T00:46:38.257Z,4.20
2018-06-19T00:47:38.487Z,4.10
2018-06-19T00:48:38.744Z,4.60
2018-06-19T00:49:39.001Z,3.70
2018-06-19T00:50:39.222Z,4.20
2018-06-19T00:51:39.454Z,4.70
2018-06-19T00:52:39.710Z,4.50
2018-06-19T00:53:39.948Z,4.30
2018-06-19T00:54:40.187Z,4.20
2018-06-19T00:55:40.419Z,4.50
2018-06-19T00:56:40.654Z,4.40
2018-06-19T00:57:40.898Z,3.70
2018-06-19T00:58:41.134Z,4.60
2018-06-19T00:59:41.375Z,4.40
2018-06-19T01:00:41.610Z,4.10
2018-06-19T01:01:41.867Z,4.10
2018-06-19T01:02:42.096Z,4.30
2018-06-19T01:03:42.328Z,4.20
2018-06-19T01:04:42.565Z,4.30
2018-06-19T01:05:42.800Z,4.00
2018-06-19T01:06:43.069Z,4.10
2018-06-19T01:07:43.288Z,4.30
2018-06-19T01:08:43.532Z,4.00
2018-06-19T01:09:43.772Z,4.70
2018-06-19T01:10:44.003Z,4.20
2018-06-19T01:11:44.260Z,3.80
2018-06-19T01:12:44.500Z,3.90
2018-06-19T01:13:44.746Z,4.20
2018-06-19T01:14:44.974Z,3.90
2018-06-19T01:15:45.206Z,4.20
2018-06-19T01:16:45.462Z,4.30
2018-06-19T01:17:45.683Z,4.20
2018-06-19T01:18:45.914Z,4.10
2018-06-19T01:19:46.174Z,4.50
2018-06-19T01:20:46.424Z,4.30
2018-06-19T01:21:46.660Z,4.10
2018-06-19T01:22:46.945Z,4.50
2018-06-19T01:23:47.164Z,4.10
2018-06-19T01:24:47.402Z,4.00
2018-06-19T01:25:47.617Z,4.10
2018-06-19T01:26:47.860Z,4.50
2018-06-19T01:27:48.101Z,3.90
2018-06-19T01:28:48.344Z,3.70
2018-06-19T01:29:48.602Z,3.80
2018-06-19T01:30:48.856Z,4.20
2018-06-19T01:31:49.107Z,4.20
2018-06-19T01:32:49.340Z,3.90
2018-06-19T01:33:49.571Z,3.50
2018-06-19T01:34:49.806Z,3.90
2018-06-19T01:35:50.060Z,4.10
2018-06-19T01:36:50.290Z,3.90
2018-06-19T01:37:50.531Z,3.70
2018-06-19T01:38:50.765Z,4.10
2018-06-19T01:39:51.004Z,3.90
2018-06-19T01:40:51.238Z,4.00
2018-06-19T01:41:51.493Z,3.70
2018-06-19T01:42:51.697Z,3.20
2018-06-19T01:43:51.944Z,3.80
2018-06-19T01:44:52.174Z,3.80
2018-06-19T01:45:52.431Z,3.90
2018-06-19T01:46:52.671Z,3.80
2018-06-19T01:47:52.933Z,4.00
2018-06-19T01:48:53.159Z,3.90
2018-06-19T01:49:53.412Z,3.70
2018-06-19T01:50:53.661Z,3.90
2018-06-19T01:51:53.895Z,3.70
2018-06-19T01:52:54.123Z,3.90
2018-06-19T01:53:54.368Z,4.30
2018-06-19T01:54:54.603Z,4.60
2018-06-19T01:55:54.860Z,4.10
2018-06-19T01:56:55.096Z,4.30
2018-06-19T01:57:55.339Z,3.90
2018-06-19T01:58:55.593Z,3.90
2018-06-19T01:59:55.837Z,4.10
2018-06-19T02:00:56.069Z,3.80
2018-06-19T02:01:56.331Z,4.20
2018-06-19T02:02:56.560Z,4.30
2018-06-19T02:03:56.806Z,4.00
2018-06-19T02:04:57.043Z,4.00
2018-06-19T02:05:57.269Z,3.30
2018-06-19T02:06:57.511Z,3.80
2018-06-19T02:07:57.741Z,3.80
2018-06-19T02:08:57.985Z,3.80
2018-06-19T02:09:58.216Z,3.60
2018-06-19T02:10:58.476Z,3.90
2018-06-19T02:11:58.697Z,4.00
2018-06-19T02:12:58.937Z,3.80
2018-06-19T02:13:59.190Z,3.70
2018-06-19T02:14:59.446Z,3.80
2018-06-19T02:15:59.672Z,3.30
2018-06-19T02:16:59.928Z,3.90
2018-06-19T02:18:00.170Z,4.30
2018-06-19T02:19:00.387Z,3.80
2018-06-19T02:20:00.629Z,3.30
2018-06-19T02:21:00.907Z,3.90
2018-06-19T02:22:01.137Z,3.70
2018-06-19T02:23:01.399Z,3.60
2018-06-19T02:24:01.648Z,3.50
2018-06-19T02:25:01.861Z,3.70
2018-06-19T02:26:02.105Z,4.00
2018-06-19T02:27:02.340Z,3.90
2018-06-19T02:28:02.582Z,3.50
2018-06-19T02:29:02.824Z,4.20
2018-06-19T02:30:03.091Z,3.80
2018-06-19T02:31:03.314Z,4.10
2018-06-19T02:32:03.556Z,3.60
2018-06-19T02:33:03.812Z,3.90
2018-06-19T02:34:04.036Z,4.00
2018-06-19T02:35:04.271Z,4.40
2018-06-19T02:36:04.511Z,3.90
2018-06-19T02:37:04.754Z,3.50
2018-06-19T02:38:05.027Z,3.90
2018-06-19T02:39:05.226Z,3.90
2018-06-19T02:40:05.502Z,4.10
2018-06-19T02:41:05.709Z,4.30
2018-06-19T02:42:05.945Z,3.90
2018-06-19T02:43:06.198Z,4.20
2018-06-19T02:44:06.436Z,4.10
2018-06-19T02:45:06.680Z,4.50
2018-06-19T02:46:06.917Z,3.60
2018-06-19T02:47:07.164Z,4.40
2018-06-19T02:48:07.432Z,4.50
2018-06-19T02:49:07.671Z,4.40
2018-06-19T02:50:07.907Z,4.40
2018-06-19T02:51:08.152Z,4.60
2018-06-19T02:52:08.401Z,4.80
2018-06-19T02:53:08.629Z,4.60
2018-06-19T02:54:08.866Z,4.90
2018-06-19T02:55:09.101Z,4.80
2018-06-19T02:56:09.333Z,5.00
2018-06-19T02:57:09.583Z,5.10
2018-06-19T02:58:09.815Z,4.40
2018-06-19T02:59:10.066Z,4.90
2018-06-19T03:00:10.305Z,4.40
2018-06-19T03:01:10.549Z,4.60
2018-06-19T03:02:10.791Z,4.80
2018-06-19T03:03:11.047Z,4.90
2018-06-19T03:04:11.272Z,4.70
2018-06-19T03:05:11.508Z,4.80
2018-06-19T03:06:11.757Z,5.00
2018-06-19T03:07:11.984Z,5.00
2018-06-19T03:08:12.235Z,5.20
2018-06-19T03:09:12.483Z,5.00
2018-06-19T03:10:12.726Z,5.30
2018-06-19T03:11:12.971Z,4.90
2018-06-19T03:12:13.186Z,5.20
2018-06-19T03:13:13.436Z,5.40
2018-06-19T03:14:13.673Z,5.70
2018-06-19T03:15:13.909Z,5.40
2018-06-19T03:16:14.162Z,5.80
2018-06-19T03:17:14.420Z,5.50
2018-06-19T03:18:14.645Z,5.20
2018-06-19T03:19:14.974Z,5.70
2018-06-19T03:20:15.117Z,5.10
2018-06-19T03:21:15.368Z,5.10
2018-06-19T03:22:15.601Z,5.20
2018-06-19T03:23:15.840Z,5.40
2018-06-19T03:24:16.071Z,5.30
2018-06-19T03:25:16.303Z,5.00
2018-06-19T03:26:16.559Z,4.90
2018-06-19T03:27:16.807Z,5.00
2018-06-19T03:28:17.048Z,5.20
2018-06-19T03:29:17.284Z,5.30
2018-06-19T03:30:17.545Z,5.20
2018-06-19T03:31:17.754Z,5.40
2018-06-19T03:32:18.020Z,5.20
2018-06-19T03:33:18.246Z,5.10
2018-06-19T03:34:18.485Z,4.60
2018-06-19T03:35:18.715Z,5.20
2018-06-19T03:36:18.948Z,5.00
2018-06-19T03:37:19.203Z,4.90
2018-06-19T03:38:19.442Z,5.30
2018-06-19T03:39:19.665Z,5.00
2018-06-19T03:40:19.911Z,5.00
2018-06-19T03:41:20.147Z,5.20
2018-06-19T03:42:20.399Z,5.80
2018-06-19T03:43:20.640Z,5.50
2018-06-19T03:44:20.871Z,5.40
2018-06-19T03:45:21.124Z,5.60
2018-06-19T03:46:21.374Z,5.60
2018-06-19T03:47:21.607Z,5.40
2018-06-19T03:48:21.823Z,6.10
2018-06-19T03:49:22.055Z,5.70
2018-06-19T03:50:22.321Z,5.60
2018-06-19T03:51:22.559Z,5.50
2018-06-19T03:52:22.806Z,6.10
2018-06-19T03:53:23.054Z,5.70
2018-06-19T03:54:23.301Z,5.80
2018-06-19T03:55:23.565Z,6.30
2018-06-19T03:56:23.817Z,5.40
2018-06-19T03:57:24.048Z,5.40
2018-06-19T03:58:24.293Z,5.30
2018-06-19T03:59:24.519Z,5.80
2018-06-19T04:00:24.762Z,6.10
2018-06-19T04:01:25.051Z,5.80
2018-06-19T04:02:25.249Z,5.40
2018-06-19T04:03:25.484Z,5.20
2018-06-19T04:04:25.728Z,5.50
2018-06-19T04:05:25.968Z,5.60
2018-06-19T04:06:26.214Z,5.70
2018-06-19T04:07:26.454Z,5.20
2018-06-19T04:08:26.694Z,5.00
2018-06-19T04:09:26.937Z,5.30
2018-06-19T04:10:27.209Z,5.10
2018-06-19T04:11:27.411Z,4.80
2018-06-19T04:12:27.650Z,5.10
2018-06-19T04:13:27.892Z,4.80
2018-06-19T04:14:28.142Z,4.80
2018-06-19T04:15:28.374Z,4.90
2018-06-19T04:16:28.636Z,5.40
2018-06-19T04:17:28.888Z,5.00
2018-06-19T04:18:29.129Z,5.20
2018-06-19T04:19:29.366Z,5.00
2018-06-19T04:20:29.610Z,4.70
2018-06-19T04:21:29.850Z,5.00
2018-06-19T04:22:30.102Z,5.00
2018-06-19T04:23:30.340Z,4.90
2018-06-19T04:24:30.585Z,4.90
2018-06-19T04:25:30.833Z,5.30
2018-06-19T04:26:31.093Z,4.80
2018-06-19T04:27:31.352Z,5.30
2018-06-19T04:28:31.597Z,5.50
2018-06-19T04:29:31.856Z,5.20
2018-06-19T04:30:32.098Z,5.20
2018-06-19T04:31:32.343Z,5.10
2018-06-19T04:32:32.566Z,4.70
2018-06-19T04:33:32.799Z,5.40
2018-06-19T04:34:33.040Z,4.90
2018-06-19T04:35:33.283Z,5.30
2018-06-19T04:36:33.537Z,5.70
2018-06-19T04:37:33.758Z,5.80
2018-06-19T04:38:34.002Z,5.80
2018-06-19T04:39:34.252Z,5.60
2018-06-19T04:40:34.489Z,5.60
2018-06-19T04:41:34.736Z,5.90
2018-06-19T04:42:34.965Z,6.30
2018-06-19T04:43:35.206Z,6.30
2018-06-19T04:44:35.448Z,6.10
2018-06-19T04:45:35.692Z,5.90
2018-06-19T04:46:35.929Z,6.50
2018-06-19T04:47:36.170Z,6.20
2018-06-19T04:48:36.419Z,6.90
2018-06-19T04:49:36.656Z,6.40
2018-06-19T04:50:36.900Z,6.80
2018-06-19T04:51:37.141Z,7.00
2018-06-19T04:52:37.363Z,7.10
2018-06-19T04:53:37.606Z,7.60
2018-06-19T04:54:37.849Z,7.20
2018-06-19T04:55:38.091Z,7.00
2018-06-19T04:56:38.322Z,6.80
2018-06-19T04:57:38.566Z,7.20
2018-06-19T04:58:38.806Z,6.90
2018-06-19T04:59:39.047Z,7.00
2018-06-19T05:00:39.919Z,7.00
2018-06-19T05:01:39.698Z,7.70
2018-06-19T05:02:39.952Z,6.90
2018-06-19T05:03:40.173Z,7.10
2018-06-19T05:04:40.417Z,6.80
2018-06-19T05:05:40.657Z,6.60
2018-06-19T05:06:40.923Z,6.70
2018-06-19T05:07:41.135Z,6.30
2018-06-19T05:08:41.379Z,6.70
2018-06-19T05:09:41.600Z,6.70
2018-06-19T05:10:41.891Z,7.00
2018-06-19T05:11:42.104Z,6.40
2018-06-19T05:12:42.411Z,6.90
2018-06-19T05:13:42.592Z,6.80
2018-06-19T05:14:42.820Z,6.90
2018-06-19T05:15:43.059Z,6.70
2018-06-19T05:16:43.308Z,7.20
2018-06-19T05:17:43.564Z,7.10
2018-06-19T05:18:43.808Z,6.40
2018-06-19T05:19:44.036Z,6.70
2018-06-19T05:20:44.284Z,6.80
2018-06-19T05:21:44.509Z,6.90
2018-06-19T05:22:44.752Z,6.80
2018-06-19T05:23:45.020Z,6.10
2018-06-19T05:24:45.238Z,6.80
2018-06-19T05:25:45.494Z,6.30
2018-06-19T05:26:45.736Z,5.60
2018-06-19T05:27:45.973Z,6.40
2018-06-19T05:28:46.211Z,5.80
2018-06-19T05:29:46.455Z,6.00
2018-06-19T05:30:46.702Z,5.90
2018-06-19T05:31:46.935Z,6.20
2018-06-19T05:32:47.179Z,5.80
2018-06-19T05:33:47.450Z,5.40
2018-06-19T05:34:47.707Z,5.70
2018-06-19T05:35:47.942Z,5.50
2018-06-19T05:36:48.192Z,5.50
2018-06-19T05:37:48.437Z,6.00
2018-06-19T05:38:48.670Z,5.30
2018-06-19T05:39:48.914Z,5.90
2018-06-19T05:40:49.159Z,5.60
2018-06-19T05:41:49.401Z,5.80
2018-06-19T05:42:49.635Z,5.60
2018-06-19T05:43:49.893Z,5.00
2018-06-19T05:44:50.131Z,4.90
2018-06-19T05:45:50.356Z,5.90
2018-06-19T05:46:50.609Z,5.60
2018-06-19T05:47:50.849Z,5.40
2018-06-19T05:48:51.086Z,5.70
2018-06-19T05:49:51.331Z,5.20
2018-06-19T05:50:51.571Z,5.20
2018-06-19T05:51:51.816Z,5.50
2018-06-19T05:52:52.056Z,5.40
2018-06-19T05:53:52.301Z,5.10
2018-06-19T05:54:52.541Z,5.00
2018-06-19T05:55:52.790Z,4.90
2018-06-19T05:56:53.022Z,5.60
2018-06-19T05:57:53.264Z,5.20
2018-06-19T05:58:53.501Z,5.40
2018-06-19T05:59:53.744Z,5.10
2018-06-19T06:00:53.985Z,4.80
2018-06-19T06:01:54.231Z,5.20
2018-06-19T06:02:54.466Z,5.10
2018-06-19T06:03:54.714Z,4.70
2018-06-19T06:04:54.942Z,4.50
2018-06-19T06:05:55.215Z,4.70
2018-06-19T06:06:55.422Z,4.70
2018-06-19T06:07:55.672Z,4.70
2018-06-19T06:08:55.916Z,4.80
2018-06-19T06:09:56.154Z,4.30
2018-06-19T06:10:56.370Z,5.00
2018-06-19T06:11:56.613Z,4.80
2018-06-19T06:12:56.849Z,5.10
2018-06-19T06:13:57.094Z,4.80
2018-06-19T06:14:57.337Z,4.80
2018-06-19T06:15:57.575Z,4.70
2018-06-19T06:16:57.822Z,4.80
2018-06-19T06:17:58.062Z,4.20
2018-06-19T06:18:58.319Z,3.70
2018-06-19T06:19:58.544Z,4.20
2018-06-19T06:20:58.786Z,4.00
2018-06-19T06:21:59.036Z,4.20
2018-06-19T06:22:59.279Z,4.40
2018-06-19T06:23:59.530Z,4.20
2018-06-19T06:24:59.772Z,4.40
2018-06-19T06:26:00.014Z,4.10
2018-06-19T06:27:00.246Z,4.30
2018-06-19T06:28:00.512Z,4.50
2018-06-19T06:29:00.736Z,4.50
2018-06-19T06:30:00.961Z,4.50
2018-06-19T06:31:01.234Z,4.70
2018-06-19T06:32:01.447Z,4.80
2018-06-19T06:33:01.687Z,5.30
2018-06-19T06:34:01.934Z,4.20
2018-06-19T06:35:02.178Z,4.20
2018-06-19T06:36:02.440Z,4.30
2018-06-19T06:37:02.693Z,4.00
2018-06-19T06:38:02.897Z,4.60
2018-06-19T06:39:03.133Z,4.10
2018-06-19T06:40:03.376Z,4.00
2018-06-19T06:41:03.615Z,3.80
2018-06-19T06:42:03.868Z,4.30
2018-06-19T06:43:04.117Z,3.70
2018-06-19T06:44:04.357Z,3.90
2018-06-19T06:45:04.589Z,4.60
2018-06-19T06:46:04.832Z,4.30
2018-06-19T06:47:05.066Z,4.30
2018-06-19T06:48:05.301Z,4.30
2018-06-19T06:49:05.546Z,4.00
2018-06-19T06:50:05.819Z,4.60
2018-06-19T06:51:06.035Z,4.00
2018-06-19T06:52:06.267Z,4.10
2018-06-19T06:53:06.501Z,4.30
2018-06-19T06:54:06.753Z,4.80
2018-06-19T06:55:07.009Z,4.80
2018-06-19T06:56:07.250Z,4.00
2018-06-19T06:57:07.484Z,4.10
2018-06-19T06:58:07.731Z,3.90
2018-06-19T06:59:07.975Z,4.00
2018-06-19T07:00:08.206Z,3.80
2018-06-19T07:01:08.452Z,3.90
2018-06-19T07:02:08.686Z,3.80
2018-06-19T07:03:08.930Z,3.80
2018-06-19T07:04:09.172Z,3.40
2018-06-19T07:05:09.419Z,3.60
2018-06-19T07:06:09.642Z,3.60
2018-06-19T07:07:09.898Z,4.60
2018-06-19T07:08:10.142Z,3.90
2018-06-19T07:09:10.384Z,3.80
2018-06-19T07:10:10.674Z,3.60
2018-06-19T07:11:10.877Z,3.70
2018-06-19T07:12:11.123Z,3.90
2018-06-19T07:13:11.391Z,4.70
2018-06-19T07:14:11.607Z,5.10
2018-06-19T07:15:11.841Z,4.60
2018-06-19T07:16:12.093Z,3.90
2018-06-19T07:17:12.333Z,4.30
2018-06-19T07:18:12.579Z,3.70
2018-06-19T07:19:12.936Z,3.40
2018-06-19T07:20:13.072Z,3.30
2018-06-19T07:21:13.320Z,3.20
2018-06-19T07:22:13.567Z,3.70
2018-06-19T07:23:13.825Z,3.60
2018-06-19T07:24:14.065Z,3.40
2018-06-19T07:25:14.295Z,3.70
2018-06-19T07:26:14.598Z,3.80
2018-06-19T07:27:14.796Z,3.60
2018-06-19T07:28:15.025Z,3.30
2018-06-19T07:29:15.270Z,3.30
2018-06-19T07:30:15.504Z,3.10
2018-06-19T07:31:15.754Z,3.30
2018-06-19T07:32:15.994Z,3.20
2018-06-19T07:33:16.232Z,2.90
2018-06-19T07:34:16.484Z,3.30
2018-06-19T07:35:16.712Z,3.10
2018-06-19T07:36:16.961Z,3.00
2018-06-19T07:37:17.206Z,3.10
2018-06-19T07:38:17.489Z,2.70
2018-06-19T07:39:17.705Z,2.60
2018-06-19T07:40:17.948Z,2.70
2018-06-19T07:41:18.197Z,3.00
2018-06-19T07:42:18.420Z,2.60
2018-06-19T07:43:18.667Z,2.80
2018-06-19T07:44:18.904Z,2.50
2018-06-19T07:45:19.147Z,2.50
2018-06-19T07:46:19.400Z,2.50
2018-06-19T07:47:19.643Z,2.60
2018-06-19T07:48:19.889Z,2.70
2018-06-19T07:49:20.133Z,2.80
2018-06-19T07:50:20.367Z,2.90
2018-06-19T07:51:20.618Z,2.80
2018-06-19T07:52:20.854Z,2.60
2018-06-19T07:53:21.109Z,2.30
2018-06-19T07:54:21.369Z,2.70
2018-06-19T07:55:21.592Z,2.60
2018-06-19T07:56:21.840Z,2.60
2018-06-19T07:57:22.096Z,2.60
2018-06-19T07:58:22.324Z,2.90
2018-06-19T07:59:22.580Z,2.80
2018-06-19T08:00:22.835Z,2.50
2018-06-19T08:01:23.065Z,2.30
2018-06-19T08:02:23.309Z,2.40
2018-06-19T08:03:23.551Z,3.20
2018-06-19T08:04:23.816Z,2.20
2018-06-19T08:05:24.060Z,2.40
2018-06-19T08:06:24.318Z,2.50
2018-06-19T08:07:24.547Z,3.10
2018-06-19T08:08:24.803Z,2.60
2018-06-19T08:09:25.057Z,2.50
2018-06-19T08:10:25.298Z,2.60
2018-06-19T08:11:25.556Z,2.10
2018-06-19T08:12:25.784Z,2.10
2018-06-19T08:13:26.039Z,2.30
2018-06-19T08:14:26.277Z,2.10
2018-06-19T08:15:26.537Z,2.10
2018-06-19T08:16:26.775Z,2.40
2018-06-19T08:17:27.039Z,2.50
2018-06-19T08:18:27.262Z,2.30
2018-06-19T08:19:27.508Z,2.10
2018-06-19T08:20:27.755Z,2.50
2018-06-19T08:21:28.002Z,2.10
2018-06-19T08:22:28.244Z,2.20
2018-06-19T08:23:28.491Z,2.20
2018-06-19T08:24:28.738Z,2.20
2018-06-19T08:25:28.987Z,2.10
2018-06-19T08:26:29.246Z,2.50
2018-06-19T08:27:29.498Z,2.40
2018-06-19T08:28:29.732Z,2.00
2018-06-19T08:29:29.984Z,2.30
2018-06-19T08:30:30.229Z,2.20
2018-06-19T08:31:30.464Z,2.20
2018-06-19T08:32:30.714Z,2.20
2018-06-19T08:33:30.952Z,2.30
2018-06-19T08:34:31.199Z,2.20
2018-06-19T08:35:31.442Z,2.20
2018-06-19T08:36:31.678Z,2.40
2018-06-19T08:37:31.938Z,1.90
2018-06-19T08:38:32.160Z,2.20
2018-06-19T08:39:32.426Z,2.20
2018-06-19T08:40:32.669Z,2.40
2018-06-19T08:41:32.922Z,2.10
2018-06-19T08:42:33.161Z,2.20
2018-06-19T08:43:33.409Z,2.40
2018-06-19T08:44:33.656Z,2.00
2018-06-19T08:45:33.902Z,2.10
2018-06-19T08:46:34.146Z,2.00
2018-06-19T08:47:34.405Z,2.10
2018-06-19T08:48:34.641Z,2.00
2018-06-19T08:49:34.883Z,2.00
2018-06-19T08:50:35.143Z,2.10
2018-06-19T08:51:35.378Z,2.10
2018-06-19T08:52:35.629Z,2.10
2018-06-19T08:53:35.878Z,1.90
2018-06-19T08:54:36.127Z,2.00
2018-06-19T08:55:36.375Z,2.40
2018-06-19T08:56:36.632Z,2.10
2018-06-19T08:57:36.875Z,2.10
2018-06-19T08:58:37.119Z,2.10
2018-06-19T08:59:37.371Z,2.10
2018-06-19T09:00:37.617Z,2.00
2018-06-19T09:01:37.864Z,1.90
2018-06-19T09:02:38.112Z,2.00
2018-06-19T09:03:38.365Z,2.30
2018-06-19T09:04:38.610Z,2.40
2018-06-19T09:05:38.862Z,1.70
2018-06-19T09:06:39.108Z,2.10
2018-06-19T09:07:39.356Z,2.10
2018-06-19T09:08:39.614Z,2.50
2018-06-19T09:09:39.870Z,2.10
2018-06-19T09:10:40.123Z,2.30
2018-06-19T09:11:49.077Z,2.50
2018-06-19T09:12:49.809Z,2.50
2018-06-19T09:13:49.669Z,1.80
2018-06-19T09:14:41.410Z,2.40
2018-06-19T09:15:41.655Z,2.00
2018-06-19T09:16:41.922Z,1.80
2018-06-19T09:17:42.153Z,1.90
2018-06-19T09:18:42.407Z,2.20
2018-06-19T09:19:42.656Z,2.60
2018-06-19T09:20:42.903Z,2.10
2018-06-19T09:21:43.182Z,2.10
2018-06-19T09:22:43.390Z,2.10
2018-06-19T09:23:43.644Z,2.30
2018-06-19T09:24:43.884Z,2.20
2018-06-19T09:25:44.134Z,2.10
2018-06-19T09:26:44.384Z,1.90
2018-06-19T09:27:44.633Z,2.00
2018-06-19T09:28:44.886Z,2.00
2018-06-19T09:29:45.179Z,2.00
2018-06-19T09:30:45.386Z,2.10
2018-06-19T09:31:45.635Z,2.20
2018-06-19T09:32:45.887Z,2.00
2018-06-19T09:33:46.132Z,2.00
2018-06-19T09:34:46.382Z,2.40
2018-06-19T09:35:46.636Z,1.90
2018-06-19T09:36:46.882Z,1.70
2018-06-19T09:37:47.131Z,1.80
2018-06-19T09:38:47.383Z,1.80
2018-06-19T09:39:47.662Z,1.60
2018-06-19T09:40:47.883Z,2.20
2018-06-19T09:41:48.133Z,2.10
2018-06-19T09:42:48.383Z,1.70
2018-06-19T09:43:48.632Z,1.50
2018-06-19T09:44:48.883Z,2.00
2018-06-19T09:45:49.134Z,1.90
2018-06-19T09:46:49.384Z,1.60
2018-06-19T09:47:49.635Z,1.70
2018-06-19T09:48:49.884Z,2.00
2018-06-19T09:49:50.134Z,1.80
2018-06-19T09:50:50.384Z,2.00
2018-06-19T09:51:50.631Z,2.00
2018-06-19T09:52:50.882Z,1.90
2018-06-19T09:53:51.138Z,1.70
2018-06-19T09:54:51.382Z,1.90
2018-06-19T09:55:51.637Z,1.70
2018-06-19T09:56:51.883Z,1.90
2018-06-19T09:57:52.137Z,1.70
2018-06-19T09:58:52.381Z,2.00
2018-06-19T09:59:52.633Z,2.10
2018-06-19T10:00:52.882Z,1.70
2018-06-19T10:01:53.131Z,2.10
2018-06-19T10:02:53.380Z,1.80
2018-06-19T10:03:53.629Z,1.90
2018-06-19T10:04:53.880Z,2.00
2018-06-19T10:05:54.127Z,1.90
2018-06-19T10:06:54.373Z,1.90
2018-06-19T10:07:54.622Z,2.10
2018-06-19T10:08:54.870Z,2.00
2018-06-19T10:09:55.119Z,1.70
2018-06-19T10:10:55.368Z,1.50
2018-06-19T10:11:55.625Z,2.40
2018-06-19T10:12:55.867Z,1.80
2018-06-19T10:13:56.113Z,1.80
2018-06-19T10:14:56.366Z,1.90
2018-06-19T10:15:56.617Z,1.80
2018-06-19T10:16:56.867Z,1.80
2018-06-19T10:17:57.122Z,1.90
2018-06-19T10:18:57.367Z,2.00
2018-06-19T10:19:57.617Z,1.70
2018-06-19T10:20:57.865Z,1.50
2018-06-19T10:21:58.115Z,1.60
2018-06-19T10:22:58.367Z,1.50
2018-06-19T10:23:58.614Z,1.40
2018-06-19T10:24:58.866Z,1.40
2018-06-19T10:25:59.115Z,1.70
2018-06-19T10:26:59.363Z,1.80
2018-06-19T10:27:59.616Z,1.80
2018-06-19T10:28:59.863Z,1.40
2018-06-19T10:30:00.113Z,1.60
2018-06-19T10:31:00.364Z,1.70
2018-06-19T10:32:00.616Z,1.60
2018-06-19T10:33:00.863Z,1.40
2018-06-19T10:34:01.113Z,1.90
2018-06-19T10:35:01.420Z,1.80
2018-06-19T10:36:01.613Z,1.60
2018-06-19T10:37:01.860Z,1.70
2018-06-19T10:38:02.106Z,1.60
2018-06-19T10:39:02.356Z,1.50
2018-06-19T10:40:02.602Z,1.60
2018-06-19T10:41:02.856Z,1.50
2018-06-19T10:42:03.098Z,1.50
2018-06-19T10:43:03.348Z,1.50
2018-06-19T10:44:03.598Z,1.30
2018-06-19T10:45:03.841Z,1.40
2018-06-19T10:46:04.094Z,1.50
2018-06-19T10:47:04.345Z,1.50
2018-06-19T10:48:04.595Z,1.40
2018-06-19T10:49:04.847Z,1.50
2018-06-19T10:50:05.101Z,1.40
2018-06-19T10:51:05.356Z,1.30
2018-06-19T10:52:05.602Z,1.30
2018-06-19T10:53:05.853Z,1.20
2018-06-19T10:54:06.097Z,1.30
2018-06-19T10:55:06.347Z,1.30
2018-06-19T10:56:06.613Z,1.30
2018-06-19T10:57:06.837Z,1.50
2018-06-19T10:58:07.089Z,1.50
2018-06-19T10:59:07.338Z,1.50
2018-06-19T11:00:07.589Z,1.50
2018-06-19T11:01:07.840Z,1.20
2018-06-19T11:02:08.090Z,1.80
2018-06-19T11:03:08.338Z,1.70
2018-06-19T11:04:08.589Z,1.50
2018-06-19T11:05:08.858Z,1.60
2018-06-19T11:06:09.088Z,1.80
2018-06-19T11:07:09.400Z,1.70
2018-06-19T11:08:09.593Z,1.40
2018-06-19T11:09:09.836Z,1.50
2018-06-19T11:10:10.086Z,1.40
2018-06-19T11:11:10.338Z,1.70
2018-06-19T11:12:10.584Z,1.60
2018-06-19T11:13:10.830Z,1.70
2018-06-19T11:14:11.129Z,1.60
2018-06-19T11:15:11.322Z,1.40
2018-06-19T11:16:11.572Z,1.60
2018-06-19T11:17:11.826Z,1.60
2018-06-19T11:18:12.074Z,1.40
2018-06-19T11:19:12.324Z,1.60
2018-06-19T11:20:12.571Z,1.70
2018-06-19T11:21:12.821Z,1.50
2018-06-19T11:22:13.069Z,1.30
2018-06-19T11:23:13.319Z,1.70
2018-06-19T11:24:13.568Z,1.60
2018-06-19T11:25:13.817Z,1.80
2018-06-19T11:26:14.065Z,1.40
2018-06-19T11:27:14.311Z,1.50
2018-06-19T11:28:14.558Z,1.60
2018-06-19T11:29:14.809Z,1.60
2018-06-19T11:30:15.061Z,1.50
2018-06-19T11:31:15.306Z,1.80
2018-06-19T11:32:15.555Z,1.90
2018-06-19T11:33:15.803Z,1.70
2018-06-19T11:34:16.054Z,1.50
2018-06-19T11:35:16.295Z,1.70
2018-06-19T11:36:16.548Z,1.70
2018-06-19T11:37:16.798Z,1.60
2018-06-19T11:38:17.048Z,1.50
2018-06-19T11:39:17.296Z,1.60
2018-06-19T11:40:17.542Z,1.60
2018-06-19T11:41:17.794Z,1.50
2018-06-19T11:42:18.043Z,1.50
2018-06-19T11:43:18.290Z,1.60
2018-06-19T11:44:18.542Z,1.70
2018-06-19T11:45:18.791Z,1.70
2018-06-19T11:46:19.041Z,1.60
2018-06-19T11:47:19.295Z,1.70
2018-06-19T11:48:19.539Z,1.50
2018-06-19T11:49:19.829Z,1.50
2018-06-19T11:50:20.038Z,1.60
2018-06-19T11:51:20.317Z,1.70
2018-06-19T11:52:20.536Z,1.70
2018-06-19T11:53:20.785Z,1.40
2018-06-19T11:54:21.036Z,1.70
2018-06-19T11:55:21.285Z,1.50
2018-06-19T11:56:21.533Z,1.30
2018-06-19T11:57:21.781Z,1.70
2018-06-19T11:58:22.033Z,1.30
2018-06-19T11:59:22.279Z,1.60
2018-06-19T12:00:22.530Z,1.40
2018-06-19T12:01:22.775Z,1.60
2018-06-19T12:02:23.027Z,1.50
2018-06-19T12:03:23.273Z,1.80
2018-06-19T12:04:23.520Z,1.80
2018-06-19T12:05:23.759Z,1.70
2018-06-19T12:06:24.005Z,1.50
2018-06-19T12:07:24.255Z,1.50
2018-06-19T12:08:24.495Z,1.50
2018-06-19T12:09:24.743Z,1.40
2018-06-19T12:10:24.991Z,1.40
2018-06-19T12:11:25.240Z,1.60
2018-06-19T12:12:25.489Z,1.70
2018-06-19T12:13:25.740Z,1.60
2018-06-19T12:14:25.984Z,1.80
2018-06-19T12:15:26.232Z,1.80
2018-06-19T12:16:26.483Z,1.80
2018-06-19T12:17:26.732Z,1.80
2018-06-19T12:18:26.980Z,1.50
2018-06-19T12:19:27.228Z,1.70
2018-06-19T12:20:27.477Z,1.70
2018-06-19T12:21:27.724Z,1.80
2018-06-19T12:22:27.970Z,1.80
2018-06-19T12:23:28.218Z,1.60
2018-06-19T12:24:28.465Z,1.80
2018-06-19T12:25:28.713Z,1.50
2018-06-19T12:26:28.962Z,1.90
2018-06-19T12:27:29.212Z,1.70
2018-06-19T12:28:29.467Z,1.70
2018-06-19T12:29:29.719Z,1.80
2018-06-19T12:30:29.968Z,1.70
2018-06-19T12:31:30.223Z,1.80
2018-06-19T12:32:30.469Z,1.80
2018-06-19T12:33:30.714Z,1.90
2018-06-19T12:34:30.958Z,1.50
2018-06-19T12:35:31.203Z,1.70
2018-06-19T12:36:31.492Z,1.90
2018-06-19T12:37:31.694Z,1.80
2018-06-19T12:38:31.940Z,1.70
2018-06-19T12:39:32.188Z,1.70
2018-06-19T12:40:32.433Z,1.80
2018-06-19T12:41:32.734Z,1.90
2018-06-19T12:42:32.928Z,1.60
2018-06-19T12:43:33.174Z,1.80
2018-06-19T12:44:33.422Z,1.70
2018-06-19T12:45:33.673Z,1.90
2018-06-19T12:46:33.912Z,1.90
2018-06-19T12:47:34.159Z,2.00
2018-06-19T12:48:34.404Z,1.90
2018-06-19T12:49:34.650Z,2.10
2018-06-19T12:50:34.893Z,2.20
2018-06-19T12:51:35.136Z,2.40
2018-06-19T12:52:35.381Z,1.90
2018-06-19T12:53:35.628Z,1.80
2018-06-19T12:54:35.866Z,2.10
2018-06-19T12:55:36.109Z,2.10
2018-06-19T12:56:36.360Z,1.90
2018-06-19T12:57:36.601Z,2.00
2018-06-19T12:58:36.849Z,1.90
2018-06-19T12:59:37.092Z,2.20
2018-06-19T13:00:37.341Z,2.10
2018-06-19T13:01:37.583Z,1.90
2018-06-19T13:02:37.831Z,2.10
2018-06-19T13:03:38.078Z,1.90
2018-06-19T13:04:38.324Z,1.80
2018-06-19T13:05:38.567Z,1.80
2018-06-19T13:06:38.813Z,1.90
2018-06-19T13:07:39.063Z,2.30
2018-06-19T13:08:39.310Z,2.00
2018-06-19T13:09:39.555Z,2.10
2018-06-19T13:10:39.800Z,2.00
2018-06-19T13:11:40.048Z,2.30
2018-06-19T13:12:40.297Z,2.10
2018-06-19T13:13:40.557Z,1.90
2018-06-19T13:14:40.805Z,2.10
2018-06-19T13:15:41.049Z,2.40
2018-06-19T13:16:41.298Z,2.20
2018-06-19T13:17:41.546Z,2.10
2018-06-19T13:18:41.789Z,2.00
2018-06-19T13:19:42.034Z,1.70
2018-06-19T13:20:42.277Z,1.70
2018-06-19T13:21:42.523Z,2.10